sensor_id;sensor_type;location;lat;lon;timestamp;temperature;humidity
1413;DHT22;701;52.526;13.408;2023-02-18T00:00:19;8.00;23.90
1413;DHT22;701;52.526;13.408;2023-02-18T00:02:45;8.00;24.00
1413;DHT22;701;52.526;13.408;2023-02-18T00:05:12;8.00;24.10
1413;DHT22;701;52.526;13.408;2023-02-18T00:07:39;8.00;24.10
1413;DHT22;701;52.526;13.408;2023-02-18T00:10:07;8.00;24.10
1413;DHT22;701;52.526;13.408;2023-02-18T00:12:33;8.00;24.20
1413;DHT22;701;52.526;13.408;2023-02-18T00:14:59;8.10;24.20
1413;DHT22;701;52.526;13.408;2023-02-18T00:17:25;8.10;24.10
1413;DHT22;701;52.526;13.408;2023-02-18T00:19:51;8.10;24.20
1413;DHT22;701;52.526;13.408;2023-02-18T00:22:16;8.10;24.20
1413;DHT22;701;52.526;13.408;2023-02-18T00:24:42;8.10;24.20
1413;DHT22;701;52.526;13.408;2023-02-18T00:27:08;8.00;24.20
1413;DHT22;701;52.526;13.408;2023-02-18T00:29:34;8.00;24.30
1413;DHT22;701;52.526;13.408;2023-02-18T00:32:00;8.00;24.30
1413;DHT22;701;52.526;13.408;2023-02-18T00:34:28;7.90;24.60
1413;DHT22;701;52.526;13.408;2023-02-18T00:36:53;8.00;24.70
1413;DHT22;701;52.526;13.408;2023-02-18T00:39:19;7.90;24.70
1413;DHT22;701;52.526;13.408;2023-02-18T00:41:45;7.90;24.90
1413;DHT22;701;52.526;13.408;2023-02-18T00:44:11;7.80;25.10
1413;DHT22;701;52.526;13.408;2023-02-18T00:46:37;7.80;25.30
1413;DHT22;701;52.526;13.408;2023-02-18T00:49:06;7.70;25.40
1413;DHT22;701;52.526;13.408;2023-02-18T00:51:34;7.70;25.60
1413;DHT22;701;52.526;13.408;2023-02-18T00:54:00;7.60;25.80
1413;DHT22;701;52.526;13.408;2023-02-18T00:56:25;7.60;26.00
1413;DHT22;701;52.526;13.408;2023-02-18T00:58:51;7.50;26.20
1413;DHT22;701;52.526;13.408;2023-02-18T01:01:17;7.50;26.40
1413;DHT22;701;52.526;13.408;2023-02-18T01:03:44;7.40;26.70
1413;DHT22;701;52.526;13.408;2023-02-18T01:06:10;7.40;26.70
1413;DHT22;701;52.526;13.408;2023-02-18T01:08:37;7.40;26.70
1413;DHT22;701;52.526;13.408;2023-02-18T01:11:03;7.30;26.60
1413;DHT22;701;52.526;13.408;2023-02-18T01:13:29;7.30;26.70
1413;DHT22;701;52.526;13.408;2023-02-18T01:15:55;7.30;26.80
1413;DHT22;701;52.526;13.408;2023-02-18T01:18:21;7.30;26.90
1413;DHT22;701;52.526;13.408;2023-02-18T01:20:48;7.30;27.00
1413;DHT22;701;52.526;13.408;2023-02-18T01:23:14;7.30;27.00
1413;DHT22;701;52.526;13.408;2023-02-18T01:25:40;7.20;27.10
1413;DHT22;701;52.526;13.408;2023-02-18T01:28:08;7.20;27.00
1413;DHT22;701;52.526;13.408;2023-02-18T01:30:35;7.20;27.10
1413;DHT22;701;52.526;13.408;2023-02-18T01:33:03;7.20;27.10
1413;DHT22;701;52.526;13.408;2023-02-18T01:35:29;7.20;27.10
1413;DHT22;701;52.526;13.408;2023-02-18T01:37:55;7.20;27.20
1413;DHT22;701;52.526;13.408;2023-02-18T01:40:23;7.20;27.30
1413;DHT22;701;52.526;13.408;2023-02-18T01:42:49;7.10;27.80
1413;DHT22;701;52.526;13.408;2023-02-18T01:50:44;7.10;27.10
1413;DHT22;701;52.526;13.408;2023-02-18T01:53:13;7.20;27.10
1413;DHT22;701;52.526;13.408;2023-02-18T01:55:39;7.20;27.20
1413;DHT22;701;52.526;13.408;2023-02-18T01:58:05;7.20;27.20
1413;DHT22;701;52.526;13.408;2023-02-18T02:00:32;7.20;27.20
1413;DHT22;701;52.526;13.408;2023-02-18T02:02:57;7.20;27.10
1413;DHT22;701;52.526;13.408;2023-02-18T02:05:23;7.20;27.10
1413;DHT22;701;52.526;13.408;2023-02-18T02:07:51;7.20;27.10
1413;DHT22;701;52.526;13.408;2023-02-18T02:10:18;7.20;27.10
1413;DHT22;701;52.526;13.408;2023-02-18T02:15:33;7.20;27.10
1413;DHT22;701;52.526;13.408;2023-02-18T02:32:12;7.20;27.10
1413;DHT22;701;52.526;13.408;2023-02-18T02:40:22;7.10;27.20
1413;DHT22;701;52.526;13.408;2023-02-18T02:51:17;7.10;27.30
1413;DHT22;701;52.526;13.408;2023-02-18T02:53:44;7.10;27.20
1413;DHT22;701;52.526;13.408;2023-02-18T02:56:18;7.10;27.00
1413;DHT22;701;52.526;13.408;2023-02-18T02:58:49;7.10;27.10
1413;DHT22;701;52.526;13.408;2023-02-18T03:01:32;7.00;27.10
1413;DHT22;701;52.526;13.408;2023-02-18T03:06:57;7.00;27.00
1413;DHT22;701;52.526;13.408;2023-02-18T03:09:57;7.00;27.10
1413;DHT22;701;52.526;13.408;2023-02-18T03:17:50;7.00;27.10
1413;DHT22;701;52.526;13.408;2023-02-18T03:20:33;6.90;27.00
1413;DHT22;701;52.526;13.408;2023-02-18T03:23:03;6.90;27.10
1413;DHT22;701;52.526;13.408;2023-02-18T03:25:31;6.90;27.20
1413;DHT22;701;52.526;13.408;2023-02-18T03:28:01;6.80;27.10
1413;DHT22;701;52.526;13.408;2023-02-18T03:30:34;6.80;27.20
1413;DHT22;701;52.526;13.408;2023-02-18T03:33:04;6.80;27.20
1413;DHT22;701;52.526;13.408;2023-02-18T03:35:32;6.80;27.20
1413;DHT22;701;52.526;13.408;2023-02-18T03:38:11;6.80;27.30
1413;DHT22;701;52.526;13.408;2023-02-18T03:40:38;6.80;27.20
1413;DHT22;701;52.526;13.408;2023-02-18T03:43:04;6.90;27.20
1413;DHT22;701;52.526;13.408;2023-02-18T03:45:30;6.90;26.80
1413;DHT22;701;52.526;13.408;2023-02-18T03:47:56;7.00;26.50
1413;DHT22;701;52.526;13.408;2023-02-18T03:50:23;7.00;26.50
1413;DHT22;701;52.526;13.408;2023-02-18T03:52:49;7.00;26.10
1413;DHT22;701;52.526;13.408;2023-02-18T03:55:15;7.00;26.00
1413;DHT22;701;52.526;13.408;2023-02-18T03:57:41;7.00;25.90
1413;DHT22;701;52.526;13.408;2023-02-18T04:00:08;7.00;25.60
1413;DHT22;701;52.526;13.408;2023-02-18T04:02:41;7.00;25.80
1413;DHT22;701;52.526;13.408;2023-02-18T04:05:07;7.00;25.80
1413;DHT22;701;52.526;13.408;2023-02-18T04:07:33;6.90;25.80
1413;DHT22;701;52.526;13.408;2023-02-18T04:09:59;6.90;25.80
1413;DHT22;701;52.526;13.408;2023-02-18T04:12:25;6.90;25.70
1413;DHT22;701;52.526;13.408;2023-02-18T04:14:50;6.90;25.80
1413;DHT22;701;52.526;13.408;2023-02-18T04:17:18;6.90;25.70
1413;DHT22;701;52.526;13.408;2023-02-18T04:19:44;6.90;25.80
1413;DHT22;701;52.526;13.408;2023-02-18T04:22:09;6.80;25.70
1413;DHT22;701;52.526;13.408;2023-02-18T04:24:35;6.80;25.60
1413;DHT22;701;52.526;13.408;2023-02-18T04:27:01;6.80;25.70
1413;DHT22;701;52.526;13.408;2023-02-18T04:29:27;6.80;25.60
1413;DHT22;701;52.526;13.408;2023-02-18T04:31:52;6.80;26.20
1413;DHT22;701;52.526;13.408;2023-02-18T04:34:18;6.80;25.70
1413;DHT22;701;52.526;13.408;2023-02-18T04:36:44;6.80;25.90
1413;DHT22;701;52.526;13.408;2023-02-18T04:39:09;6.70;25.80
1413;DHT22;701;52.526;13.408;2023-02-18T04:41:35;6.80;26.00
1413;DHT22;701;52.526;13.408;2023-02-18T04:44:01;6.70;26.00
1413;DHT22;701;52.526;13.408;2023-02-18T04:46:26;6.70;26.10
1413;DHT22;701;52.526;13.408;2023-02-18T04:48:52;6.70;26.20
1413;DHT22;701;52.526;13.408;2023-02-18T04:51:18;6.60;26.20
1413;DHT22;701;52.526;13.408;2023-02-18T04:53:44;6.60;26.20
1413;DHT22;701;52.526;13.408;2023-02-18T04:56:10;6.60;26.20
1413;DHT22;701;52.526;13.408;2023-02-18T04:58:36;6.60;26.20
1413;DHT22;701;52.526;13.408;2023-02-18T05:01:03;6.60;26.30
1413;DHT22;701;52.526;13.408;2023-02-18T05:03:30;6.50;26.40
1413;DHT22;701;52.526;13.408;2023-02-18T05:05:56;6.50;26.50
1413;DHT22;701;52.526;13.408;2023-02-18T05:08:22;6.50;26.50
1413;DHT22;701;52.526;13.408;2023-02-18T05:10:48;6.50;26.40
1413;DHT22;701;52.526;13.408;2023-02-18T05:13:13;6.50;26.50
1413;DHT22;701;52.526;13.408;2023-02-18T05:15:39;6.50;26.50
1413;DHT22;701;52.526;13.408;2023-02-18T05:18:05;6.50;26.50
1413;DHT22;701;52.526;13.408;2023-02-18T05:20:32;6.50;26.50
1413;DHT22;701;52.526;13.408;2023-02-18T05:22:58;6.60;26.50
1413;DHT22;701;52.526;13.408;2023-02-18T05:25:23;6.60;26.20
1413;DHT22;701;52.526;13.408;2023-02-18T05:27:49;6.60;26.20
1413;DHT22;701;52.526;13.408;2023-02-18T05:30:15;6.70;26.20
1413;DHT22;701;52.526;13.408;2023-02-18T05:32:41;6.80;26.00
1413;DHT22;701;52.526;13.408;2023-02-18T05:35:07;6.90;25.90
1413;DHT22;701;52.526;13.408;2023-02-18T05:37:33;7.00;25.50
1413;DHT22;701;52.526;13.408;2023-02-18T05:39:59;7.10;25.30
1413;DHT22;701;52.526;13.408;2023-02-18T05:42:24;7.10;25.10
1413;DHT22;701;52.526;13.408;2023-02-18T05:44:50;7.20;25.00
1413;DHT22;701;52.526;13.408;2023-02-18T05:47:16;7.20;24.50
1413;DHT22;701;52.526;13.408;2023-02-18T05:49:42;7.30;24.30
1413;DHT22;701;52.526;13.408;2023-02-18T05:52:09;7.30;24.20
1413;DHT22;701;52.526;13.408;2023-02-18T05:54:35;7.40;23.90
1413;DHT22;701;52.526;13.408;2023-02-18T05:57:01;7.50;23.90
1413;DHT22;701;52.526;13.408;2023-02-18T05:59:27;7.50;23.50
1413;DHT22;701;52.526;13.408;2023-02-18T06:01:53;7.60;23.30
1413;DHT22;701;52.526;13.408;2023-02-18T06:04:19;7.60;23.30
1413;DHT22;701;52.526;13.408;2023-02-18T06:06:45;7.70;23.30
1413;DHT22;701;52.526;13.408;2023-02-18T06:09:11;7.70;23.30
1413;DHT22;701;52.526;13.408;2023-02-18T06:11:37;7.80;23.00
1413;DHT22;701;52.526;13.408;2023-02-18T06:14:03;7.80;22.90
1413;DHT22;701;52.526;13.408;2023-02-18T06:16:30;7.90;22.80
1413;DHT22;701;52.526;13.408;2023-02-18T06:18:56;7.90;22.30
1413;DHT22;701;52.526;13.408;2023-02-18T06:21:21;7.90;22.20
1413;DHT22;701;52.526;13.408;2023-02-18T06:23:47;7.90;22.00
1413;DHT22;701;52.526;13.408;2023-02-18T06:26:13;8.00;21.70
1413;DHT22;701;52.526;13.408;2023-02-18T06:28:39;8.00;21.70
1413;DHT22;701;52.526;13.408;2023-02-18T06:31:05;8.10;21.90
1413;DHT22;701;52.526;13.408;2023-02-18T06:33:30;8.10;21.60
1413;DHT22;701;52.526;13.408;2023-02-18T06:35:59;8.10;21.60
1413;DHT22;701;52.526;13.408;2023-02-18T06:38:25;8.20;21.90
1413;DHT22;701;52.526;13.408;2023-02-18T06:40:51;8.20;21.30
1413;DHT22;701;52.526;13.408;2023-02-18T06:43:18;8.30;21.60
1413;DHT22;701;52.526;13.408;2023-02-18T06:45:44;8.30;21.20
1413;DHT22;701;52.526;13.408;2023-02-18T06:48:11;8.30;21.30
1413;DHT22;701;52.526;13.408;2023-02-18T06:50:37;8.40;21.20
1413;DHT22;701;52.526;13.408;2023-02-18T06:53:03;8.40;21.10
1413;DHT22;701;52.526;13.408;2023-02-18T06:55:29;8.40;21.50
1413;DHT22;701;52.526;13.408;2023-02-18T06:57:54;8.40;20.80
1413;DHT22;701;52.526;13.408;2023-02-18T07:00:20;8.50;21.00
1413;DHT22;701;52.526;13.408;2023-02-18T07:02:47;8.50;20.90
1413;DHT22;701;52.526;13.408;2023-02-18T07:05:13;8.50;21.00
1413;DHT22;701;52.526;13.408;2023-02-18T07:07:38;8.60;20.90
1413;DHT22;701;52.526;13.408;2023-02-18T07:10:05;8.60;21.10
1413;DHT22;701;52.526;13.408;2023-02-18T07:12:32;8.60;20.90
1413;DHT22;701;52.526;13.408;2023-02-18T07:14:57;8.60;20.70
1413;DHT22;701;52.526;13.408;2023-02-18T07:17:23;8.70;20.70
1413;DHT22;701;52.526;13.408;2023-02-18T07:19:49;8.70;20.40
1413;DHT22;701;52.526;13.408;2023-02-18T07:22:15;8.70;20.40
1413;DHT22;701;52.526;13.408;2023-02-18T07:24:41;8.80;20.40
1413;DHT22;701;52.526;13.408;2023-02-18T07:27:07;8.80;20.40
1413;DHT22;701;52.526;13.408;2023-02-18T07:29:33;8.90;20.50
1413;DHT22;701;52.526;13.408;2023-02-18T07:32:00;8.90;20.20
1413;DHT22;701;52.526;13.408;2023-02-18T07:34:26;8.90;20.20
1413;DHT22;701;52.526;13.408;2023-02-18T07:36:53;9.00;20.30
1413;DHT22;701;52.526;13.408;2023-02-18T07:39:19;9.00;20.30
1413;DHT22;701;52.526;13.408;2023-02-18T07:41:47;9.00;20.60
1413;DHT22;701;52.526;13.408;2023-02-18T07:44:14;9.10;20.50
1413;DHT22;701;52.526;13.408;2023-02-18T07:46:41;9.20;20.70
1413;DHT22;701;52.526;13.408;2023-02-18T07:49:08;9.30;20.70
1413;DHT22;701;52.526;13.408;2023-02-18T07:51:35;9.40;20.60
1413;DHT22;701;52.526;13.408;2023-02-18T07:54:03;9.40;20.40
1413;DHT22;701;52.526;13.408;2023-02-18T07:56:30;9.50;20.20
1413;DHT22;701;52.526;13.408;2023-02-18T07:58:56;9.60;20.30
1413;DHT22;701;52.526;13.408;2023-02-18T08:01:26;9.60;20.90
1413;DHT22;701;52.526;13.408;2023-02-18T08:03:53;9.60;20.90
1413;DHT22;701;52.526;13.408;2023-02-18T08:06:25;9.50;21.20
1413;DHT22;701;52.526;13.408;2023-02-18T08:08:51;9.50;21.70
1413;DHT22;701;52.526;13.408;2023-02-18T08:11:18;9.60;22.20
1413;DHT22;701;52.526;13.408;2023-02-18T08:13:44;9.70;22.10
1413;DHT22;701;52.526;13.408;2023-02-18T08:16:13;9.70;22.10
1413;DHT22;701;52.526;13.408;2023-02-18T08:18:39;9.80;22.10
1413;DHT22;701;52.526;13.408;2023-02-18T08:21:06;9.80;22.20
1413;DHT22;701;52.526;13.408;2023-02-18T08:23:32;9.80;22.10
1413;DHT22;701;52.526;13.408;2023-02-18T08:25:59;9.80;22.30
1413;DHT22;701;52.526;13.408;2023-02-18T08:28:25;9.80;22.40
1413;DHT22;701;52.526;13.408;2023-02-18T08:30:53;9.80;22.60
1413;DHT22;701;52.526;13.408;2023-02-18T08:33:20;9.70;22.80
1413;DHT22;701;52.526;13.408;2023-02-18T08:35:48;9.80;23.20
1413;DHT22;701;52.526;13.408;2023-02-18T08:38:15;9.70;23.90
1413;DHT22;701;52.526;13.408;2023-02-18T08:40:40;9.70;23.60
1413;DHT22;701;52.526;13.408;2023-02-18T08:43:07;9.80;23.80
1413;DHT22;701;52.526;13.408;2023-02-18T08:45:33;9.80;24.50
1413;DHT22;701;52.526;13.408;2023-02-18T08:47:59;9.90;24.00
1413;DHT22;701;52.526;13.408;2023-02-18T08:50:24;9.90;24.10
1413;DHT22;701;52.526;13.408;2023-02-18T08:52:52;10.00;23.40
1413;DHT22;701;52.526;13.408;2023-02-18T08:55:19;10.00;23.40
1413;DHT22;701;52.526;13.408;2023-02-18T08:57:49;9.90;24.20
1413;DHT22;701;52.526;13.408;2023-02-18T09:00:16;9.90;24.70
1413;DHT22;701;52.526;13.408;2023-02-18T09:02:42;9.80;24.60
1413;DHT22;701;52.526;13.408;2023-02-18T09:05:09;9.80;24.60
1413;DHT22;701;52.526;13.408;2023-02-18T09:07:36;9.80;24.60
1413;DHT22;701;52.526;13.408;2023-02-18T09:10:02;9.80;25.20
1413;DHT22;701;52.526;13.408;2023-02-18T09:12:28;9.80;25.40
1413;DHT22;701;52.526;13.408;2023-02-18T09:14:54;9.80;25.30
1413;DHT22;701;52.526;13.408;2023-02-18T09:17:20;9.80;25.70
1413;DHT22;701;52.526;13.408;2023-02-18T09:19:45;9.80;25.70
1413;DHT22;701;52.526;13.408;2023-02-18T09:22:11;9.90;25.90
1413;DHT22;701;52.526;13.408;2023-02-18T09:24:38;9.90;26.20
1413;DHT22;701;52.526;13.408;2023-02-18T09:27:04;10.00;25.40
1413;DHT22;701;52.526;13.408;2023-02-18T09:29:31;10.00;25.80
1413;DHT22;701;52.526;13.408;2023-02-18T09:32:01;10.00;25.70
1413;DHT22;701;52.526;13.408;2023-02-18T09:34:27;10.00;26.10
1413;DHT22;701;52.526;13.408;2023-02-18T09:36:53;10.00;25.90
1413;DHT22;701;52.526;13.408;2023-02-18T09:39:19;10.00;26.00
1413;DHT22;701;52.526;13.408;2023-02-18T09:41:47;10.00;25.90
1413;DHT22;701;52.526;13.408;2023-02-18T09:44:18;10.00;26.00
1413;DHT22;701;52.526;13.408;2023-02-18T09:49:26;10.00;26.40
1413;DHT22;701;52.526;13.408;2023-02-18T09:51:55;10.00;26.50
1413;DHT22;701;52.526;13.408;2023-02-18T09:54:22;10.00;26.50
1413;DHT22;701;52.526;13.408;2023-02-18T09:56:48;10.00;26.70
1413;DHT22;701;52.526;13.408;2023-02-18T09:59:19;10.00;26.90
1413;DHT22;701;52.526;13.408;2023-02-18T10:01:49;10.00;27.10
1413;DHT22;701;52.526;13.408;2023-02-18T10:04:49;10.00;27.10
1413;DHT22;701;52.526;13.408;2023-02-18T10:07:33;9.90;28.20
1413;DHT22;701;52.526;13.408;2023-02-18T10:10:29;9.90;28.40
1413;DHT22;701;52.526;13.408;2023-02-18T10:12:56;9.90;28.50
1413;DHT22;701;52.526;13.408;2023-02-18T10:15:26;9.80;28.90
1413;DHT22;701;52.526;13.408;2023-02-18T10:17:55;9.80;29.10
1413;DHT22;701;52.526;13.408;2023-02-18T10:20:25;9.70;29.30
1413;DHT22;701;52.526;13.408;2023-02-18T10:22:53;9.70;29.70
1413;DHT22;701;52.526;13.408;2023-02-18T10:25:22;9.70;30.00
1413;DHT22;701;52.526;13.408;2023-02-18T10:27:50;9.60;30.10
1413;DHT22;701;52.526;13.408;2023-02-18T10:32:45;9.60;31.00
1413;DHT22;701;52.526;13.408;2023-02-18T10:35:24;9.60;31.80
1413;DHT22;701;52.526;13.408;2023-02-18T10:41:16;9.70;32.70
1413;DHT22;701;52.526;13.408;2023-02-18T10:44:01;9.80;32.00
1413;DHT22;701;52.526;13.408;2023-02-18T10:51:54;9.90;32.10
1413;DHT22;701;52.526;13.408;2023-02-18T10:54:25;9.90;32.10
1413;DHT22;701;52.526;13.408;2023-02-18T10:56:57;9.90;32.10
1413;DHT22;701;52.526;13.408;2023-02-18T10:59:56;9.80;32.00
1413;DHT22;701;52.526;13.408;2023-02-18T11:02:25;9.80;33.20
1413;DHT22;701;52.526;13.408;2023-02-18T11:04:51;9.80;33.20
1413;DHT22;701;52.526;13.408;2023-02-18T11:07:26;9.70;33.40
1413;DHT22;701;52.526;13.408;2023-02-18T11:09:56;9.70;33.90
1413;DHT22;701;52.526;13.408;2023-02-18T11:12:26;9.70;34.50
1413;DHT22;701;52.526;13.408;2023-02-18T11:17:34;9.80;34.80
1413;DHT22;701;52.526;13.408;2023-02-18T11:22:46;9.90;35.10
1413;DHT22;701;52.526;13.408;2023-02-18T11:25:25;9.90;34.30
1413;DHT22;701;52.526;13.408;2023-02-18T11:27:56;10.00;33.50
1413;DHT22;701;52.526;13.408;2023-02-18T11:30:43;9.90;34.30
1413;DHT22;701;52.526;13.408;2023-02-18T11:33:39;9.90;34.50
1413;DHT22;701;52.526;13.408;2023-02-18T11:36:24;9.80;34.90
1413;DHT22;701;52.526;13.408;2023-02-18T11:39:03;9.80;34.90
1413;DHT22;701;52.526;13.408;2023-02-18T11:41:40;9.80;35.30
1413;DHT22;701;52.526;13.408;2023-02-18T11:44:35;9.70;36.20
1413;DHT22;701;52.526;13.408;2023-02-18T11:47:16;9.70;37.00
1413;DHT22;701;52.526;13.408;2023-02-18T11:50:21;9.60;37.20
1413;DHT22;701;52.526;13.408;2023-02-18T11:52:48;9.60;38.30
1413;DHT22;701;52.526;13.408;2023-02-18T11:55:25;9.60;37.60
1413;DHT22;701;52.526;13.408;2023-02-18T11:58:03;9.60;38.00
1413;DHT22;701;52.526;13.408;2023-02-18T12:00:38;9.60;38.80
1413;DHT22;701;52.526;13.408;2023-02-18T12:03:34;9.60;39.40
1413;DHT22;701;52.526;13.408;2023-02-18T12:06:10;9.60;39.60
1413;DHT22;701;52.526;13.408;2023-02-18T12:08:48;9.70;40.30
1413;DHT22;701;52.526;13.408;2023-02-18T12:11:27;9.80;40.60
1413;DHT22;701;52.526;13.408;2023-02-18T12:13:56;9.90;40.90
1413;DHT22;701;52.526;13.408;2023-02-18T12:35:14;10.30;43.90
1413;DHT22;701;52.526;13.408;2023-02-18T12:46:15;10.60;45.30
1413;DHT22;701;52.526;13.408;2023-02-18T12:54:49;10.80;46.80
1413;DHT22;701;52.526;13.408;2023-02-18T13:00:21;11.10;47.20
1413;DHT22;701;52.526;13.408;2023-02-18T13:05:56;11.30;47.80
1413;DHT22;701;52.526;13.408;2023-02-18T13:11:24;11.50;47.00
1413;DHT22;701;52.526;13.408;2023-02-18T13:16:26;11.70;46.70
1413;DHT22;701;52.526;13.408;2023-02-18T13:19:04;11.70;46.40
1413;DHT22;701;52.526;13.408;2023-02-18T13:21:32;11.80;46.70
1413;DHT22;701;52.526;13.408;2023-02-18T13:24:03;11.80;46.60
1413;DHT22;701;52.526;13.408;2023-02-18T13:26:32;11.80;46.70
1413;DHT22;701;52.526;13.408;2023-02-18T13:29:17;11.90;47.70
1413;DHT22;701;52.526;13.408;2023-02-18T13:32:08;11.90;48.50
1413;DHT22;701;52.526;13.408;2023-02-18T13:34:52;11.90;49.00
1413;DHT22;701;52.526;13.408;2023-02-18T13:39:52;11.90;48.90
1413;DHT22;701;52.526;13.408;2023-02-18T13:42:35;11.90;50.20
1413;DHT22;701;52.526;13.408;2023-02-18T13:45:14;11.80;50.60
1413;DHT22;701;52.526;13.408;2023-02-18T13:47:47;11.80;51.40
1413;DHT22;701;52.526;13.408;2023-02-18T13:50:25;11.80;51.80
1413;DHT22;701;52.526;13.408;2023-02-18T14:00:54;11.90;52.00
1413;DHT22;701;52.526;13.408;2023-02-18T14:05:58;11.80;52.70
1413;DHT22;701;52.526;13.408;2023-02-18T14:08:35;11.80;53.30
1413;DHT22;701;52.526;13.408;2023-02-18T14:11:30;11.80;53.00
1413;DHT22;701;52.526;13.408;2023-02-18T14:19:41;11.80;52.90
1413;DHT22;701;52.526;13.408;2023-02-18T14:27:37;11.70;52.40
1413;DHT22;701;52.526;13.408;2023-02-18T14:30:50;11.70;52.50
1413;DHT22;701;52.526;13.408;2023-02-18T14:32:58;11.80;51.80
1413;DHT22;701;52.526;13.408;2023-02-18T14:35:39;11.80;50.60
1413;DHT22;701;52.526;13.408;2023-02-18T14:40:42;11.80;50.10
1413;DHT22;701;52.526;13.408;2023-02-18T14:46:19;11.80;50.10
1413;DHT22;701;52.526;13.408;2023-02-18T14:51:31;11.80;48.00
1413;DHT22;701;52.526;13.408;2023-02-18T14:54:03;11.80;48.30
1413;DHT22;701;52.526;13.408;2023-02-18T14:56:30;11.80;48.00
1413;DHT22;701;52.526;13.408;2023-02-18T14:58:59;11.80;48.30
1413;DHT22;701;52.526;13.408;2023-02-18T15:01:32;11.80;48.40
1413;DHT22;701;52.526;13.408;2023-02-18T15:03:59;11.80;48.40
1413;DHT22;701;52.526;13.408;2023-02-18T15:06:35;11.80;48.60
1413;DHT22;701;52.526;13.408;2023-02-18T15:09:17;11.80;48.60
1413;DHT22;701;52.526;13.408;2023-02-18T15:11:49;11.70;50.10
1413;DHT22;701;52.526;13.408;2023-02-18T15:14:22;11.60;50.50
1413;DHT22;701;52.526;13.408;2023-02-18T15:16:50;11.60;50.90
1413;DHT22;701;52.526;13.408;2023-02-18T15:19:18;11.60;50.90
1413;DHT22;701;52.526;13.408;2023-02-18T15:21:47;11.60;50.00
1413;DHT22;701;52.526;13.408;2023-02-18T15:24:21;11.60;50.00
1413;DHT22;701;52.526;13.408;2023-02-18T15:26:48;11.60;50.00
1413;DHT22;701;52.526;13.408;2023-02-18T15:29:27;11.60;50.00
1413;DHT22;701;52.526;13.408;2023-02-18T15:31:55;11.60;49.60
1413;DHT22;701;52.526;13.408;2023-02-18T15:36:55;11.70;48.50
1413;DHT22;701;52.526;13.408;2023-02-18T15:39:22;11.80;47.50
1413;DHT22;701;52.526;13.408;2023-02-18T15:41:56;11.90;46.50
1413;DHT22;701;52.526;13.408;2023-02-18T15:44:29;11.90;46.10
1413;DHT22;701;52.526;13.408;2023-02-18T15:47:00;11.90;44.40
1413;DHT22;701;52.526;13.408;2023-02-18T15:49:26;12.00;44.00
1413;DHT22;701;52.526;13.408;2023-02-18T15:51:56;12.00;42.90
1413;DHT22;701;52.526;13.408;2023-02-18T15:54:22;12.00;43.00
1413;DHT22;701;52.526;13.408;2023-02-18T15:56:51;12.00;42.70
1413;DHT22;701;52.526;13.408;2023-02-18T16:04:38;11.80;44.30
1413;DHT22;701;52.526;13.408;2023-02-18T16:09:48;11.70;44.60
1413;DHT22;701;52.526;13.408;2023-02-18T16:12:29;11.70;44.60
1413;DHT22;701;52.526;13.408;2023-02-18T16:14:56;11.60;44.10
1413;DHT22;701;52.526;13.408;2023-02-18T16:17:25;11.60;44.00
1413;DHT22;701;52.526;13.408;2023-02-18T16:19:55;11.60;43.90
1413;DHT22;701;52.526;13.408;2023-02-18T16:22:32;11.60;44.30
1413;DHT22;701;52.526;13.408;2023-02-18T16:30:25;11.50;46.20
1413;DHT22;701;52.526;13.408;2023-02-18T16:32:51;11.50;46.80
1413;DHT22;701;52.526;13.408;2023-02-18T16:35:20;11.50;46.50
1413;DHT22;701;52.526;13.408;2023-02-18T16:37:46;11.50;46.70
1413;DHT22;701;52.526;13.408;2023-02-18T16:40:22;11.40;46.90
1413;DHT22;701;52.526;13.408;2023-02-18T16:42:49;11.40;46.90
1413;DHT22;701;52.526;13.408;2023-02-18T16:45:14;11.40;46.70
1413;DHT22;701;52.526;13.408;2023-02-18T16:47:42;11.40;46.40
1413;DHT22;701;52.526;13.408;2023-02-18T16:50:19;11.30;45.50
1413;DHT22;701;52.526;13.408;2023-02-18T16:52:46;11.20;45.30
1413;DHT22;701;52.526;13.408;2023-02-18T16:55:20;11.10;44.80
1413;DHT22;701;52.526;13.408;2023-02-18T16:57:47;11.00;45.20
1413;DHT22;701;52.526;13.408;2023-02-18T17:00:14;10.90;45.10
1413;DHT22;701;52.526;13.408;2023-02-18T17:02:40;10.80;44.90
1413;DHT22;701;52.526;13.408;2023-02-18T17:05:07;10.70;44.90
1413;DHT22;701;52.526;13.408;2023-02-18T17:07:33;10.60;44.30
1413;DHT22;701;52.526;13.408;2023-02-18T17:09:58;10.50;44.30
1413;DHT22;701;52.526;13.408;2023-02-18T17:12:24;10.50;44.20
1413;DHT22;701;52.526;13.408;2023-02-18T17:14:51;10.40;44.40
1413;DHT22;701;52.526;13.408;2023-02-18T17:17:17;10.30;44.40
1413;DHT22;701;52.526;13.408;2023-02-18T17:19:49;10.20;44.10
1413;DHT22;701;52.526;13.408;2023-02-18T17:22:15;10.20;44.10
1413;DHT22;701;52.526;13.408;2023-02-18T17:24:41;10.10;44.20
1413;DHT22;701;52.526;13.408;2023-02-18T17:27:09;10.00;43.60
1413;DHT22;701;52.526;13.408;2023-02-18T17:29:35;9.90;44.80
1413;DHT22;701;52.526;13.408;2023-02-18T17:32:02;9.80;44.60
1413;DHT22;701;52.526;13.408;2023-02-18T17:34:29;9.80;44.90
1413;DHT22;701;52.526;13.408;2023-02-18T17:36:57;9.70;44.60
1413;DHT22;701;52.526;13.408;2023-02-18T17:39:23;9.70;45.00
1413;DHT22;701;52.526;13.408;2023-02-18T17:41:49;9.60;45.00
1413;DHT22;701;52.526;13.408;2023-02-18T17:44:17;9.60;44.50
1413;DHT22;701;52.526;13.408;2023-02-18T17:46:44;9.50;44.30
1413;DHT22;701;52.526;13.408;2023-02-18T17:49:09;9.50;44.00
1413;DHT22;701;52.526;13.408;2023-02-18T17:51:35;9.40;43.80
1413;DHT22;701;52.526;13.408;2023-02-18T17:54:13;9.40;43.90
1413;DHT22;701;52.526;13.408;2023-02-18T17:56:39;9.40;43.80
1413;DHT22;701;52.526;13.408;2023-02-18T17:59:05;9.30;43.60
1413;DHT22;701;52.526;13.408;2023-02-18T18:01:31;9.30;43.10
1413;DHT22;701;52.526;13.408;2023-02-18T18:03:57;9.30;43.50
1413;DHT22;701;52.526;13.408;2023-02-18T18:06:22;9.30;43.10
1413;DHT22;701;52.526;13.408;2023-02-18T18:08:48;9.20;42.70
1413;DHT22;701;52.526;13.408;2023-02-18T18:11:21;9.20;42.60
1413;DHT22;701;52.526;13.408;2023-02-18T18:13:47;9.20;42.10
1413;DHT22;701;52.526;13.408;2023-02-18T18:16:15;9.10;41.90
1413;DHT22;701;52.526;13.408;2023-02-18T18:18:41;9.10;41.60
1413;DHT22;701;52.526;13.408;2023-02-18T18:21:28;9.10;41.90
1413;DHT22;701;52.526;13.408;2023-02-18T18:23:55;9.00;41.60
1413;DHT22;701;52.526;13.408;2023-02-18T18:26:20;9.00;41.80
1413;DHT22;701;52.526;13.408;2023-02-18T18:28:46;9.00;41.90
1413;DHT22;701;52.526;13.408;2023-02-18T18:31:17;8.90;41.10
1413;DHT22;701;52.526;13.408;2023-02-18T18:33:44;8.90;40.90
1413;DHT22;701;52.526;13.408;2023-02-18T18:36:14;8.90;41.10
1413;DHT22;701;52.526;13.408;2023-02-18T18:38:40;8.80;40.00
1413;DHT22;701;52.526;13.408;2023-02-18T18:41:13;8.80;40.00
1413;DHT22;701;52.526;13.408;2023-02-18T18:43:39;8.80;40.00
1413;DHT22;701;52.526;13.408;2023-02-18T18:46:05;8.80;40.00
1413;DHT22;701;52.526;13.408;2023-02-18T18:48:31;8.70;39.60
1413;DHT22;701;52.526;13.408;2023-02-18T18:50:58;8.70;40.00
1413;DHT22;701;52.526;13.408;2023-02-18T18:53:28;8.70;39.80
1413;DHT22;701;52.526;13.408;2023-02-18T18:56:03;8.60;39.30
1413;DHT22;701;52.526;13.408;2023-02-18T18:58:29;8.60;38.90
1413;DHT22;701;52.526;13.408;2023-02-18T19:00:59;8.50;38.90
1413;DHT22;701;52.526;13.408;2023-02-18T19:03:27;8.50;39.50